createdAt,value
2023-05-15T00:02:26.863Z,91.54
2023-05-15T00:04:54.201Z,91.70
2023-05-15T00:07:21.325Z,91.86
2023-05-15T00:09:48.310Z,92.33
2023-05-15T00:12:15.552Z,92.33
2023-05-15T00:14:42.556Z,93.03
2023-05-15T00:17:09.921Z,93.54
2023-05-15T00:19:36.983Z,93.75
2023-05-15T00:22:04.385Z,94.03
2023-05-15T00:24:31.272Z,93.99
2023-05-15T00:27:00.737Z,93.88
2023-05-15T00:29:28.012Z,93.88
2023-05-15T00:31:55.144Z,94.27
2023-05-15T00:34:25.724Z,93.94
2023-05-15T00:36:52.921Z,93.98
2023-05-15T00:39:19.978Z,93.99
2023-05-15T00:41:51.501Z,93.96
2023-05-15T00:44:22.574Z,94.24
2023-05-15T00:46:51.764Z,94.27
2023-05-15T00:49:21.815Z,94.11
2023-05-15T00:51:50.116Z,94.24
2023-05-15T00:54:17.221Z,93.86
2023-05-15T00:56:46.039Z,93.79
2023-05-15T00:59:13.821Z,93.44
2023-05-15T01:01:41.229Z,93.18
2023-05-15T01:04:11.605Z,92.94
2023-05-15T01:06:38.611Z,92.82
2023-05-15T01:09:08.327Z,92.94
2023-05-15T01:11:38.520Z,92.53
2023-05-15T01:14:08.713Z,92.62
2023-05-15T01:16:36.338Z,92.61
2023-05-15T01:19:05.165Z,92.85
2023-05-15T01:22:10.760Z,92.83
2023-05-15T01:25:10.457Z,92.91
2023-05-15T01:27:50.386Z,93.22
2023-05-15T01:30:24.707Z,93.24
2023-05-15T01:33:03.985Z,93.24
2023-05-15T01:35:49.642Z,93.30
2023-05-15T01:38:34.024Z,93.75
2023-05-15T01:41:51.543Z,93.95
2023-05-15T01:44:36.898Z,94.51
2023-05-15T01:47:13.615Z,94.59
2023-05-15T01:49:45.560Z,94.52
2023-05-15T01:52:30.840Z,94.45
2023-05-15T01:55:00.025Z,94.41
2023-05-15T01:57:31.022Z,94.74
2023-05-15T01:59:59.760Z,94.56
2023-05-15T02:02:29.390Z,94.81
2023-05-15T02:04:58.060Z,94.67
2023-05-15T02:07:26.184Z,94.99
2023-05-15T02:09:54.326Z,95.11
2023-05-15T02:12:23.252Z,95.15
2023-05-15T02:14:52.190Z,95.39
2023-05-15T02:17:22.199Z,95.42
2023-05-15T02:19:50.684Z,95.40
2023-05-15T02:22:17.633Z,95.36
2023-05-15T02:24:45.012Z,95.12
2023-05-15T02:27:28.090Z,95.85
2023-05-15T02:30:20.205Z,96.44
2023-05-15T02:33:23.420Z,96.63
2023-05-15T02:36:04.698Z,96.90
2023-05-15T02:38:40.874Z,96.95
2023-05-15T02:41:09.877Z,97.19
2023-05-15T02:43:39.532Z,97.28
2023-05-15T02:46:08.263Z,97.33
2023-05-15T02:48:41.084Z,97.39
2023-05-15T02:51:08.384Z,97.43
2023-05-15T02:53:43.503Z,97.09
2023-05-15T02:56:10.610Z,97.29
2023-05-15T02:58:39.538Z,97.14
2023-05-15T03:01:06.966Z,96.87
2023-05-15T03:03:34.067Z,97.06
2023-05-15T03:06:01.501Z,97.64
2023-05-15T03:08:28.911Z,97.74
2023-05-15T03:10:55.844Z,97.86
2023-05-15T03:13:22.920Z,97.96
2023-05-15T03:15:49.941Z,97.95
2023-05-15T03:18:19.065Z,98.73
2023-05-15T03:20:49.144Z,98.75
2023-05-15T03:23:16.226Z,99.11
2023-05-15T03:25:43.256Z,99.11
2023-05-15T03:28:10.577Z,99.51
2023-05-15T03:30:37.623Z,99.53
2023-05-15T03:33:05.323Z,99.49
2023-05-15T03:35:32.581Z,99.53
2023-05-15T03:37:59.651Z,99.77
2023-05-15T03:40:26.717Z,99.90
2023-05-15T03:42:53.831Z,99.54
2023-05-15T03:45:21.408Z,99.75
2023-05-15T03:47:49.238Z,99.91
2023-05-15T03:50:16.528Z,99.85
2023-05-15T03:52:43.582Z,99.93
2023-05-15T03:55:10.807Z,99.98
2023-05-15T03:57:37.944Z,99.86
2023-05-15T04:00:10.153Z,99.84
2023-05-15T04:02:41.094Z,99.33
2023-05-15T04:05:09.309Z,99.49
2023-05-15T04:07:38.001Z,99.27
2023-05-15T04:10:05.941Z,98.44
2023-05-15T04:12:35.551Z,97.53
2023-05-15T04:15:24.302Z,97.36
2023-05-15T04:17:53.725Z,97.07
2023-05-15T04:20:24.593Z,97.10
2023-05-15T04:22:52.960Z,97.31
2023-05-15T04:25:20.588Z,97.11
2023-05-15T04:27:47.741Z,96.88
2023-05-15T04:30:17.381Z,96.94
2023-05-15T04:32:44.548Z,96.66
2023-05-15T04:35:13.544Z,96.38
2023-05-15T04:37:45.604Z,95.88
2023-05-15T04:40:14.982Z,95.81
2023-05-15T04:42:42.269Z,95.47
2023-05-15T04:45:09.798Z,95.12
2023-05-15T04:47:40.001Z,94.68
2023-05-15T04:50:07.739Z,94.41
2023-05-15T04:52:34.970Z,94.21
2023-05-15T04:55:02.057Z,93.81
2023-05-15T04:57:30.540Z,93.68
2023-05-15T05:00:00.642Z,93.16
2023-05-15T05:02:31.074Z,92.93
2023-05-15T05:04:58.075Z,92.74
2023-05-15T05:07:25.085Z,92.19
2023-05-15T05:09:52.042Z,91.48
2023-05-15T05:12:19.044Z,90.59
2023-05-15T05:14:46.009Z,90.15
2023-05-15T05:17:13.159Z,88.11
2023-05-15T05:19:40.304Z,87.05
2023-05-15T05:22:07.915Z,87.05
2023-05-15T05:24:38.258Z,87.07
2023-05-15T05:27:05.864Z,86.51
2023-05-15T05:29:32.887Z,84.04
2023-05-15T05:31:59.993Z,81.38
2023-05-15T05:34:27.136Z,81.20
2023-05-15T05:36:54.197Z,82.56
2023-05-15T05:39:21.168Z,83.39
2023-05-15T05:41:48.327Z,84.13
2023-05-15T05:44:15.600Z,84.92
2023-05-15T05:46:42.704Z,85.72
2023-05-15T05:49:09.675Z,86.21
2023-05-15T05:51:39.274Z,86.70
2023-05-15T05:54:06.313Z,86.90
2023-05-15T05:56:33.531Z,86.91
2023-05-15T05:59:02.330Z,85.80
2023-05-15T06:01:29.610Z,84.36
2023-05-15T06:03:57.434Z,83.27
2023-05-15T06:06:24.927Z,83.12
2023-05-15T06:08:52.567Z,82.47
2023-05-15T06:11:23.187Z,80.77
2023-05-15T06:13:51.570Z,80.11
2023-05-15T06:16:18.452Z,78.44
2023-05-15T06:18:45.377Z,79.17
2023-05-15T06:21:12.332Z,79.28
2023-05-15T06:23:39.320Z,78.75
2023-05-15T06:26:06.333Z,78.70
2023-05-15T06:28:33.367Z,77.72
2023-05-15T06:31:00.603Z,76.97
2023-05-15T06:33:27.531Z,76.95
2023-05-15T06:35:54.536Z,76.67
2023-05-15T06:38:21.470Z,76.61
2023-05-15T06:40:48.370Z,75.34
2023-05-15T06:43:15.350Z,75.25
2023-05-15T06:45:42.266Z,74.45
2023-05-15T06:48:09.347Z,74.24
2023-05-15T06:50:36.371Z,75.14
2023-05-15T06:53:03.368Z,74.05
2023-05-15T06:55:30.435Z,74.39
2023-05-15T06:57:57.355Z,75.46
2023-05-15T07:00:24.330Z,76.15
2023-05-15T07:02:51.311Z,74.66
2023-05-15T07:05:18.329Z,74.37
2023-05-15T07:07:45.925Z,74.48
2023-05-15T07:10:13.001Z,74.18
2023-05-15T07:12:39.882Z,73.73
2023-05-15T07:15:07.633Z,72.59
2023-05-15T07:17:34.659Z,72.83
2023-05-15T07:20:01.928Z,72.75
2023-05-15T07:22:29.214Z,72.20
2023-05-15T07:24:56.256Z,71.89
2023-05-15T07:27:23.286Z,71.01
2023-05-15T07:29:50.430Z,70.39
2023-05-15T07:32:17.449Z,70.85
2023-05-15T07:34:44.408Z,69.49
2023-05-15T07:37:11.329Z,69.13
2023-05-15T07:39:38.317Z,69.13
2023-05-15T07:42:05.540Z,69.01
2023-05-15T07:44:32.472Z,70.02
2023-05-15T07:46:59.433Z,70.78
2023-05-15T07:49:26.476Z,70.88
2023-05-15T07:51:53.413Z,69.36
2023-05-15T07:54:20.842Z,69.43
2023-05-15T07:56:47.900Z,70.09
2023-05-15T07:59:15.301Z,70.40
2023-05-15T08:01:42.240Z,69.17
2023-05-15T08:04:09.725Z,68.03
2023-05-15T08:06:39.906Z,67.85
2023-05-15T08:09:06.918Z,66.61
2023-05-15T08:11:34.094Z,64.41
2023-05-15T08:14:01.083Z,64.70
2023-05-15T08:16:29.906Z,62.55
2023-05-15T08:19:01.544Z,61.98
2023-05-15T08:21:29.515Z,62.48
2023-05-15T08:23:57.275Z,62.79
2023-05-15T08:26:24.264Z,62.42
2023-05-15T08:28:51.388Z,63.04
2023-05-15T08:31:18.430Z,64.08
2023-05-15T08:33:45.447Z,64.28
2023-05-15T08:36:12.502Z,64.08
2023-05-15T08:38:39.543Z,62.18
2023-05-15T08:41:39.968Z,60.05
2023-05-15T08:44:11.018Z,60.98
2023-05-15T08:46:38.786Z,61.56
2023-05-15T08:49:18.379Z,60.70
2023-05-15T08:51:45.660Z,59.81
2023-05-15T08:54:12.983Z,60.68
2023-05-15T08:56:40.466Z,60.83
2023-05-15T08:59:07.823Z,58.90
2023-05-15T09:01:36.725Z,59.63
2023-05-15T09:04:04.851Z,58.83
2023-05-15T09:06:33.927Z,58.65
2023-05-15T09:09:02.193Z,58.61
2023-05-15T09:11:31.779Z,58.50
2023-05-15T09:14:00.056Z,58.42
2023-05-15T09:16:27.915Z,56.23
2023-05-15T09:18:54.964Z,55.93
2023-05-15T09:21:31.555Z,56.10
2023-05-15T09:24:37.994Z,56.76
2023-05-15T09:27:07.824Z,56.51
2023-05-15T09:29:38.002Z,56.51
2023-05-15T09:32:08.854Z,54.90
2023-05-15T09:34:42.179Z,55.11
2023-05-15T09:37:13.218Z,54.97
2023-05-15T09:39:44.553Z,54.24
2023-05-15T09:42:15.936Z,53.76
2023-05-15T09:44:44.786Z,54.44
2023-05-15T09:47:17.254Z,54.20
2023-05-15T09:49:45.422Z,55.01
2023-05-15T09:52:12.845Z,54.67
2023-05-15T09:54:39.996Z,54.36
2023-05-15T09:57:10.039Z,54.71
2023-05-15T09:59:47.416Z,54.54
2023-05-15T10:02:24.766Z,53.46
2023-05-15T10:04:56.912Z,54.13
2023-05-15T10:07:31.916Z,52.84
2023-05-15T10:10:00.666Z,52.03
2023-05-15T10:12:29.401Z,52.58
2023-05-15T10:14:58.495Z,51.76
2023-05-15T10:17:32.088Z,50.69
2023-05-15T10:20:02.749Z,49.83
2023-05-15T10:22:32.345Z,48.20
2023-05-15T10:25:33.006Z,48.55
2023-05-15T10:28:01.300Z,49.06
2023-05-15T10:30:31.253Z,49.85
2023-05-15T10:33:00.778Z,49.29
2023-05-15T10:35:28.674Z,50.17
2023-05-15T10:37:57.206Z,49.40
2023-05-15T10:40:24.867Z,49.48
2023-05-15T10:42:55.269Z,50.12
2023-05-15T10:45:22.514Z,50.16
2023-05-15T10:47:52.100Z,50.26
2023-05-15T10:50:20.091Z,51.24
2023-05-15T10:52:51.971Z,51.00
2023-05-15T10:55:19.575Z,51.08
2023-05-15T10:57:49.733Z,50.98
2023-05-15T11:00:22.644Z,51.10
2023-05-15T11:02:53.764Z,49.19
2023-05-15T11:05:21.050Z,49.66
2023-05-15T11:08:17.113Z,49.10
2023-05-15T11:10:44.751Z,47.83
2023-05-15T11:13:12.073Z,48.34
2023-05-15T11:15:45.163Z,49.47
2023-05-15T11:18:12.688Z,49.98
2023-05-15T11:20:43.380Z,50.85
2023-05-15T11:23:10.380Z,50.98
2023-05-15T11:25:37.502Z,51.47
2023-05-15T11:28:05.489Z,50.98
2023-05-15T11:30:40.230Z,52.18
2023-05-15T11:33:11.270Z,53.06
2023-05-15T11:35:47.625Z,54.66
2023-05-15T11:38:24.498Z,55.04
2023-05-15T11:40:55.012Z,55.07
2023-05-15T11:43:28.918Z,54.85
2023-05-15T11:46:04.219Z,54.08
2023-05-15T11:48:34.596Z,55.02
2023-05-15T11:51:02.584Z,55.81
2023-05-15T11:53:31.248Z,56.39
2023-05-15T11:55:59.113Z,56.27
2023-05-15T11:58:26.860Z,56.33
2023-05-15T12:00:54.465Z,56.68
2023-05-15T12:03:26.548Z,55.70
2023-05-15T12:05:59.480Z,55.22
2023-05-15T12:08:32.852Z,55.78
2023-05-15T12:11:01.472Z,55.77
2023-05-15T12:13:29.481Z,54.97
2023-05-15T12:15:57.078Z,55.05
2023-05-15T12:18:24.539Z,56.08
2023-05-15T12:20:53.370Z,56.96
2023-05-15T12:23:26.831Z,58.06
2023-05-15T12:26:01.430Z,58.55
2023-05-15T12:28:30.613Z,58.12
2023-05-15T12:30:59.413Z,58.97
2023-05-15T12:33:26.845Z,59.34
2023-05-15T12:36:00.260Z,59.19
2023-05-15T12:38:29.004Z,59.69
2023-05-15T12:40:57.213Z,57.13
2023-05-15T12:43:26.087Z,57.64
2023-05-15T12:45:57.214Z,57.74
2023-05-15T12:48:32.070Z,58.19
2023-05-15T12:51:09.005Z,59.57
2023-05-15T12:53:39.506Z,60.80
2023-05-15T12:56:09.030Z,60.66
2023-05-15T12:58:37.433Z,61.47
2023-05-15T13:01:04.634Z,62.26
2023-05-15T13:03:32.426Z,61.96
2023-05-15T13:06:02.354Z,62.79
2023-05-15T13:08:29.390Z,63.34
2023-05-15T13:10:58.736Z,64.11
2023-05-15T13:13:48.835Z,64.91
2023-05-15T13:16:21.316Z,64.99
2023-05-15T13:18:48.580Z,64.88
2023-05-15T13:21:15.682Z,65.19
2023-05-15T13:23:42.716Z,65.32
2023-05-15T13:26:09.765Z,65.21
2023-05-15T13:28:36.729Z,65.67
2023-05-15T13:31:03.728Z,65.90
2023-05-15T13:33:32.078Z,66.03
2023-05-15T13:35:59.480Z,66.17
2023-05-15T13:38:26.419Z,65.05
2023-05-15T13:40:53.372Z,63.25
2023-05-15T13:43:20.302Z,61.41
2023-05-15T13:45:47.256Z,59.54
2023-05-15T13:48:14.222Z,59.15
2023-05-15T13:50:43.177Z,58.92
2023-05-15T13:53:10.215Z,57.52
2023-05-15T13:55:37.164Z,57.57
2023-05-15T13:58:04.286Z,56.24
2023-05-15T14:00:31.286Z,57.32
2023-05-15T14:02:58.385Z,58.46
2023-05-15T14:05:25.418Z,58.42
2023-05-15T14:07:52.298Z,58.69
2023-05-15T14:10:19.283Z,58.76
2023-05-15T14:12:47.016Z,58.95
2023-05-15T14:15:13.956Z,57.24
2023-05-15T14:17:41.272Z,57.18
2023-05-15T14:20:10.156Z,57.05
2023-05-15T14:22:38.594Z,57.40
2023-05-15T14:25:06.438Z,57.62
2023-05-15T14:27:33.428Z,58.10
2023-05-15T14:30:01.100Z,57.38
2023-05-15T14:32:28.075Z,56.87
2023-05-15T14:34:59.656Z,57.36
2023-05-15T14:37:27.757Z,57.41
2023-05-15T14:39:54.762Z,58.27
2023-05-15T14:42:21.970Z,57.31
2023-05-15T14:44:49.697Z,57.71
2023-05-15T14:47:16.856Z,58.59
2023-05-15T14:49:43.994Z,57.85
2023-05-15T14:52:12.481Z,58.35
2023-05-15T14:54:40.151Z,58.80
2023-05-15T14:57:07.791Z,60.41
2023-05-15T14:59:34.929Z,60.38
2023-05-15T15:02:02.327Z,60.74
2023-05-15T15:04:34.224Z,61.61
2023-05-15T15:07:04.872Z,62.00
2023-05-15T15:09:32.179Z,62.34
2023-05-15T15:11:59.498Z,61.99
2023-05-15T15:14:26.568Z,62.63
2023-05-15T15:16:53.633Z,61.51
2023-05-15T15:19:20.769Z,62.12
2023-05-15T15:21:48.353Z,62.28
2023-05-15T15:24:16.954Z,63.46
2023-05-15T15:26:43.912Z,63.28
2023-05-15T15:29:10.858Z,62.34
2023-05-15T15:31:37.845Z,62.24
2023-05-15T15:34:05.699Z,62.74
2023-05-15T15:36:33.123Z,62.88
2023-05-15T15:39:00.138Z,61.82
2023-05-15T15:41:30.370Z,62.31
2023-05-15T15:43:57.274Z,62.56
2023-05-15T15:46:24.405Z,63.00
2023-05-15T15:48:51.446Z,62.96
2023-05-15T15:51:18.433Z,62.64
2023-05-15T15:53:45.487Z,63.30
2023-05-15T15:56:12.492Z,62.97
2023-05-15T15:58:39.491Z,63.25
2023-05-15T16:01:06.454Z,63.85
2023-05-15T16:04:03.285Z,63.94
2023-05-15T16:06:31.057Z,63.71
2023-05-15T16:08:58.015Z,62.82
2023-05-15T16:11:25.086Z,62.84
2023-05-15T16:13:52.701Z,62.65
2023-05-15T16:16:19.984Z,63.48
2023-05-15T16:18:47.556Z,64.58
2023-05-15T16:21:14.701Z,65.55
2023-05-15T16:23:41.709Z,64.89
2023-05-15T16:26:11.246Z,64.94
2023-05-15T16:28:38.218Z,64.65
2023-05-15T16:31:07.966Z,64.64
2023-05-15T16:33:35.268Z,65.00
2023-05-15T16:36:05.045Z,64.14
2023-05-15T16:38:32.408Z,65.44
2023-05-15T16:40:59.355Z,66.33
2023-05-15T16:43:26.439Z,66.65
2023-05-15T16:45:53.393Z,67.74
2023-05-15T16:48:20.420Z,68.47
2023-05-15T16:50:47.340Z,69.30
2023-05-15T16:53:15.195Z,70.13
2023-05-15T16:55:42.155Z,70.64
2023-05-15T16:58:09.195Z,70.91
2023-05-15T17:00:36.281Z,70.94
2023-05-15T17:03:05.742Z,71.09
2023-05-15T17:05:34.043Z,70.51
2023-05-15T17:08:01.158Z,70.92
2023-05-15T17:10:28.746Z,70.82
2023-05-15T17:12:55.898Z,71.23
2023-05-15T17:15:23.917Z,71.63
2023-05-15T17:17:51.054Z,72.17
2023-05-15T17:20:18.094Z,71.97
2023-05-15T17:22:45.063Z,72.07
2023-05-15T17:25:12.016Z,71.68
2023-05-15T17:27:41.286Z,71.84
2023-05-15T17:30:10.406Z,71.80
2023-05-15T17:32:39.174Z,72.38
2023-05-15T17:35:08.080Z,73.64
2023-05-15T17:37:35.044Z,73.52
2023-05-15T17:40:02.076Z,73.50
2023-05-15T17:42:29.084Z,73.48
2023-05-15T17:44:56.819Z,74.01
2023-05-15T17:47:24.029Z,74.67
2023-05-15T17:49:51.117Z,74.16
2023-05-15T17:52:18.106Z,73.84
2023-05-15T17:54:45.033Z,73.78
2023-05-15T17:57:12.023Z,73.85
2023-05-15T17:59:39.007Z,73.73
2023-05-15T18:02:06.809Z,74.13
2023-05-15T18:04:33.865Z,74.43
2023-05-15T18:07:00.876Z,73.99
2023-05-15T18:09:28.011Z,74.75
2023-05-15T18:11:55.005Z,74.18
2023-05-15T18:14:22.045Z,75.29
2023-05-15T18:16:49.034Z,75.55
2023-05-15T18:19:16.188Z,76.23
2023-05-15T18:21:43.510Z,76.17
2023-05-15T18:24:10.525Z,76.51
2023-05-15T18:26:38.005Z,76.37
2023-05-15T18:29:05.031Z,76.68
2023-05-15T18:31:32.217Z,76.83
2023-05-15T18:34:00.956Z,76.15
2023-05-15T18:36:28.023Z,76.94
2023-05-15T18:38:54.997Z,77.74
2023-05-15T18:41:23.049Z,77.63
2023-05-15T18:43:50.077Z,78.13
2023-05-15T18:46:17.310Z,78.95
2023-05-15T18:48:44.377Z,79.15
2023-05-15T18:51:11.390Z,79.25
2023-05-15T18:53:38.401Z,79.46
2023-05-15T18:56:05.597Z,79.54
2023-05-15T18:58:32.548Z,80.18
2023-05-15T19:01:00.118Z,80.65
2023-05-15T19:03:27.281Z,80.96
2023-05-15T19:05:54.190Z,80.71
2023-05-15T19:08:21.171Z,81.77
2023-05-15T19:10:48.835Z,82.69
2023-05-15T19:13:15.799Z,83.38
2023-05-15T19:15:53.811Z,84.16
2023-05-15T19:18:20.856Z,84.71
2023-05-15T19:20:52.074Z,85.02
2023-05-15T19:23:20.660Z,85.57
2023-05-15T19:25:48.053Z,86.18
2023-05-15T19:28:15.083Z,86.22
2023-05-15T19:30:42.647Z,86.44
2023-05-15T19:33:09.613Z,86.83
2023-05-15T19:35:37.717Z,86.66
2023-05-15T19:38:05.011Z,86.81
2023-05-15T19:40:31.934Z,86.94
2023-05-15T19:42:58.878Z,87.24
2023-05-15T19:45:25.875Z,86.83
2023-05-15T19:47:53.111Z,86.46
2023-05-15T19:50:20.381Z,86.75
2023-05-15T19:52:47.560Z,85.75
2023-05-15T19:55:14.603Z,84.61
2023-05-15T19:57:44.787Z,84.19
2023-05-15T20:00:12.947Z,83.24
2023-05-15T20:02:41.341Z,83.94
2023-05-15T20:05:09.337Z,84.62
2023-05-15T20:07:36.995Z,85.29
2023-05-15T20:10:05.198Z,85.51
2023-05-15T20:12:32.242Z,86.31
2023-05-15T20:14:59.390Z,86.54
2023-05-15T20:17:27.040Z,87.17
2023-05-15T20:19:54.036Z,86.91
2023-05-15T20:22:20.955Z,86.77
2023-05-15T20:24:48.170Z,87.38
2023-05-15T20:27:15.302Z,87.74
2023-05-15T20:29:42.313Z,86.83
2023-05-15T20:32:09.413Z,87.46
2023-05-15T20:34:36.915Z,86.84
2023-05-15T20:37:03.929Z,86.39
2023-05-15T20:39:31.078Z,86.42
2023-05-15T20:42:00.616Z,86.34
2023-05-15T20:44:27.592Z,86.68
2023-05-15T20:46:54.549Z,87.10
2023-05-15T20:49:21.586Z,88.18
2023-05-15T20:51:48.781Z,88.36
2023-05-15T20:54:16.152Z,87.02
2023-05-15T20:56:43.188Z,86.68
2023-05-15T20:59:11.389Z,86.50
2023-05-15T21:01:39.102Z,86.28
2023-05-15T21:04:06.365Z,86.68
2023-05-15T21:06:33.553Z,86.47
2023-05-15T21:09:00.672Z,87.07
2023-05-15T21:11:28.473Z,86.86
2023-05-15T21:13:55.376Z,87.29
2023-05-15T21:16:22.374Z,87.31
2023-05-15T21:18:49.374Z,87.95
2023-05-15T21:21:16.535Z,88.27
2023-05-15T21:23:43.612Z,88.59
2023-05-15T21:26:10.977Z,88.53
2023-05-15T21:28:38.101Z,88.76
2023-05-15T21:31:09.755Z,87.74
2023-05-15T21:33:37.714Z,86.67
2023-05-15T21:36:05.217Z,86.18
2023-05-15T21:38:32.659Z,86.99
2023-05-15T21:41:01.161Z,86.80
2023-05-15T21:43:28.130Z,87.05
2023-05-15T21:45:56.619Z,87.92
2023-05-15T21:48:23.648Z,88.02
2023-05-15T21:50:50.744Z,88.79
2023-05-15T21:53:17.710Z,88.70
2023-05-15T21:55:44.782Z,87.95
2023-05-15T21:58:11.805Z,88.22
2023-05-15T22:00:40.266Z,89.68
2023-05-15T22:03:07.685Z,90.63
2023-05-15T22:05:34.804Z,91.39
2023-05-15T22:08:01.822Z,92.45
2023-05-15T22:10:29.015Z,92.27
2023-05-15T22:12:59.095Z,93.04
2023-05-15T22:15:26.072Z,93.19
2023-05-15T22:17:54.045Z,93.31
2023-05-15T22:20:21.357Z,93.12
2023-05-15T22:22:48.377Z,92.37
2023-05-15T22:25:15.393Z,91.70
2023-05-15T22:27:42.616Z,91.46
2023-05-15T22:30:09.958Z,91.44
2023-05-15T22:32:38.929Z,90.90
2023-05-15T22:35:08.244Z,90.32
2023-05-15T22:37:35.739Z,89.08
2023-05-15T22:40:03.886Z,88.67
2023-05-15T22:42:30.840Z,88.47
2023-05-15T22:44:57.925Z,88.28
2023-05-15T22:47:26.500Z,88.25
2023-05-15T22:49:53.789Z,87.89
2023-05-15T22:52:20.994Z,87.73
2023-05-15T22:54:57.217Z,87.60
2023-05-15T22:57:44.135Z,86.75
2023-05-15T23:00:12.773Z,86.90
2023-05-15T23:02:42.610Z,86.49
2023-05-15T23:05:11.312Z,86.89
2023-05-15T23:07:44.008Z,86.27
2023-05-15T23:10:29.771Z,86.43
2023-05-15T23:12:56.888Z,86.29
2023-05-15T23:15:25.000Z,85.65
2023-05-15T23:17:52.060Z,86.28
2023-05-15T23:20:19.563Z,86.16
2023-05-15T23:22:46.479Z,85.74
2023-05-15T23:25:13.449Z,85.69
2023-05-15T23:27:40.581Z,85.63
2023-05-15T23:30:08.582Z,85.55
2023-05-15T23:32:35.828Z,85.10
2023-05-15T23:35:03.133Z,84.95
2023-05-15T23:37:30.192Z,85.21
2023-05-15T23:39:57.188Z,85.04
2023-05-15T23:42:24.156Z,84.74
2023-05-15T23:44:51.180Z,84.99
2023-05-15T23:47:18.222Z,85.19
2023-05-15T23:49:45.269Z,84.22
2023-05-15T23:52:12.248Z,84.77
2023-05-15T23:54:40.083Z,85.17
2023-05-15T23:57:07.079Z,84.92
2023-05-15T23:59:34.028Z,84.38
